KSOW/SOW METAR and TAF weather

Enter ICAO airport designator
Station Type Date Time Source
KSOW METAR 2019/12/14 17:15 UTC NOAA

KSOW 141715Z AUTO 21023G37KT 10SM CLR 10/02 A2995 RMK AO2


Station Type Date Time Source
KSOW Decoded METAR 2019/12/14 17:15 UTC NOAA

Show Low, Show Low Regional Airport, AZ, United States (KSOW) 34-15-55N 110-00-20W
Dec 14, 2019 - 12:15 PM EST / 2019.12.14 1715 UTC
Wind: from the SSW (210 degrees) at 26 MPH (23 KT) gusting to 43 MPH (37 KT):0
Visibility: 10 mile(s):0
Sky conditions: clear
Temperature: 50 F (10 C)
Dew Point: 35 F (2 C)
Relative Humidity: 57%
Pressure (altimeter): 29.95 in. Hg (1014 hPa)
ob: KSOW 141715Z AUTO 21023G37KT 10SM CLR 10/02 A2995 RMK AO2
cycle: 17

Station Type Date Time Source
KSOW TAF UTC NOAA

Error!

Example: see airport list